sensor_id;sensor_type;location;lat;lon;timestamp;pressure;altitude;pressure_sealevel;temperature;humidity
55994;BME280;67425;52.126;20.638;2023-04-01T00:01:10;57308.66;;;-144.78;64.95
55994;BME280;67425;52.126;20.638;2023-04-01T00:03:37;57298.28;;;-144.78;64.07
55994;BME280;67425;52.126;20.638;2023-04-01T00:06:02;57294.13;;;-144.78;62.55
55994;BME280;67425;52.126;20.638;2023-04-01T00:08:29;57292.06;;;-144.78;62.26
55994;BME280;67425;52.126;20.638;2023-04-01T00:10:54;57296.22;;;-144.78;61.75
55994;BME280;67425;52.126;20.638;2023-04-01T00:13:20;57285.81;;;-144.78;60.62
55994;BME280;67425;52.126;20.638;2023-04-01T00:15:47;57306.59;;;-144.78;61.40
55994;BME280;67425;52.126;20.638;2023-04-01T00:18:13;57289.97;;;-144.78;60.19
55994;BME280;67425;52.126;20.638;2023-04-01T00:20:38;57279.59;;;-144.78;60.16
55994;BME280;67425;52.126;20.638;2023-04-01T00:23:04;57285.81;;;-144.78;59.58
55994;BME280;67425;52.126;20.638;2023-04-01T00:25:30;57304.50;;;-144.78;59.66
55994;BME280;67425;52.126;20.638;2023-04-01T00:27:56;57281.69;;;-144.78;59.84
55994;BME280;67425;52.126;20.638;2023-04-01T00:30:21;57267.13;;;-144.78;60.13
55994;BME280;67425;52.126;20.638;2023-04-01T00:32:46;57298.28;;;-144.78;59.74
55994;BME280;67425;52.126;20.638;2023-04-01T00:35:12;57287.91;;;-144.78;59.06
55994;BME280;67425;52.126;20.638;2023-04-01T00:37:38;57289.97;;;-144.78;59.13
55994;BME280;67425;52.126;20.638;2023-04-01T00:40:08;57287.91;;;-144.78;58.85
55994;BME280;67425;52.126;20.638;2023-04-01T00:42:45;57285.81;;;-144.78;59.37
55994;BME280;67425;52.126;20.638;2023-04-01T00:45:27;57294.13;;;-144.78;60.69
55994;BME280;67425;52.126;20.638;2023-04-01T00:47:54;57321.13;;;-144.78;61.84
55994;BME280;67425;52.126;20.638;2023-04-01T00:50:22;57294.13;;;-144.78;62.18
55994;BME280;67425;52.126;20.638;2023-04-01T00:52:50;57314.91;;;-144.78;61.37
55994;BME280;67425;52.126;20.638;2023-04-01T00:55:16;57327.34;;;-144.78;62.21
55994;BME280;67425;52.126;20.638;2023-04-01T00:57:44;57310.75;;;-144.78;62.27
55994;BME280;67425;52.126;20.638;2023-04-01T01:00:12;57348.13;;;-144.78;61.71
55994;BME280;67425;52.126;20.638;2023-04-01T01:02:41;57314.91;;;-144.78;63.14
55994;BME280;67425;52.126;20.638;2023-04-01T01:05:10;57321.13;;;-144.78;64.27
55994;BME280;67425;52.126;20.638;2023-04-01T01:07:47;57325.28;;;-144.78;63.94
55994;BME280;67425;52.126;20.638;2023-04-01T01:10:23;57316.97;;;-144.78;63.62
55994;BME280;67425;52.126;20.638;2023-04-01T01:13:04;57304.50;;;-144.78;63.25
55994;BME280;67425;52.126;20.638;2023-04-01T01:19:09;57319.06;;;-144.78;64.09
55994;BME280;67425;52.126;20.638;2023-04-01T01:21:45;57314.91;;;-144.78;61.69
55994;BME280;67425;52.126;20.638;2023-04-01T01:26:59;57314.91;;;-144.78;61.89
55994;BME280;67425;52.126;20.638;2023-04-01T01:30:00;57294.13;;;-144.78;61.07
55994;BME280;67425;52.126;20.638;2023-04-01T01:37:43;57302.44;;;-144.78;60.30
55994;BME280;67425;52.126;20.638;2023-04-01T01:40:11;57296.22;;;-144.78;60.91
55994;BME280;67425;52.126;20.638;2023-04-01T01:42:41;57308.66;;;-144.78;61.82
55994;BME280;67425;52.126;20.638;2023-04-01T01:45:10;57287.91;;;-144.78;62.59
55994;BME280;67425;52.126;20.638;2023-04-01T01:47:38;57294.13;;;-144.78;61.54
55994;BME280;67425;52.126;20.638;2023-04-01T01:50:06;57310.75;;;-144.78;61.31
55994;BME280;67425;52.126;20.638;2023-04-01T01:52:32;57314.91;;;-144.78;59.96
55994;BME280;67425;52.126;20.638;2023-04-01T01:54:57;57306.59;;;-144.78;60.35
55994;BME280;67425;52.126;20.638;2023-04-01T01:57:26;57294.13;;;-144.78;60.07
55994;BME280;67425;52.126;20.638;2023-04-01T01:59:58;57289.97;;;-144.78;59.18
55994;BME280;67425;52.126;20.638;2023-04-01T02:02:26;57283.75;;;-144.78;59.12
55994;BME280;67425;52.126;20.638;2023-04-01T02:04:52;57298.28;;;-144.78;59.37
55994;BME280;67425;52.126;20.638;2023-04-01T02:07:31;57275.44;;;-144.78;58.58
55994;BME280;67425;52.126;20.638;2023-04-01T02:09:58;57262.97;;;-144.78;58.82
55994;BME280;67425;52.126;20.638;2023-04-01T02:12:24;57285.81;;;-144.78;58.47
55994;BME280;67425;52.126;20.638;2023-04-01T02:15:03;57292.06;;;-144.78;58.06
55994;BME280;67425;52.126;20.638;2023-04-01T02:17:33;57275.44;;;-144.78;57.92
55994;BME280;67425;52.126;20.638;2023-04-01T02:20:06;57281.69;;;-144.78;57.89
55994;BME280;67425;52.126;20.638;2023-04-01T02:22:39;57267.13;;;-144.78;57.87
55994;BME280;67425;52.126;20.638;2023-04-01T02:25:13;57300.38;;;-144.78;58.10
55994;BME280;67425;52.126;20.638;2023-04-01T02:27:42;57306.59;;;-144.78;59.57
55994;BME280;67425;52.126;20.638;2023-04-01T02:30:08;57283.75;;;-144.78;60.11
55994;BME280;67425;52.126;20.638;2023-04-01T02:32:35;57327.34;;;-144.78;60.67
55994;BME280;67425;52.126;20.638;2023-04-01T02:35:07;57289.97;;;-144.78;59.12
55994;BME280;67425;52.126;20.638;2023-04-01T02:37:34;57289.97;;;-144.78;60.13
55994;BME280;67425;52.126;20.638;2023-04-01T02:40:01;57306.59;;;-144.78;59.39
55994;BME280;67425;52.126;20.638;2023-04-01T02:42:27;57285.81;;;-144.78;58.74
55994;BME280;67425;52.126;20.638;2023-04-01T02:44:52;57279.59;;;-144.78;57.98
55994;BME280;67425;52.126;20.638;2023-04-01T02:47:17;57308.66;;;-144.78;58.72
55994;BME280;67425;52.126;20.638;2023-04-01T02:49:43;57281.69;;;-144.78;59.00
55994;BME280;67425;52.126;20.638;2023-04-01T02:52:08;57306.59;;;-144.78;59.36
55994;BME280;67425;52.126;20.638;2023-04-01T02:54:33;57289.97;;;-144.78;58.80
55994;BME280;67425;52.126;20.638;2023-04-01T02:56:59;57273.38;;;-144.78;57.21
55994;BME280;67425;52.126;20.638;2023-04-01T02:59:25;57267.13;;;-144.78;57.47
55994;BME280;67425;52.126;20.638;2023-04-01T03:01:50;57281.69;;;-144.78;57.48
55994;BME280;67425;52.126;20.638;2023-04-01T03:04:15;57294.13;;;-144.78;58.34
55994;BME280;67425;52.126;20.638;2023-04-01T03:06:40;57283.75;;;-144.78;58.98
55994;BME280;67425;52.126;20.638;2023-04-01T03:09:06;57289.97;;;-144.78;58.82
55994;BME280;67425;52.126;20.638;2023-04-01T03:11:31;57298.28;;;-144.78;59.50
55994;BME280;67425;52.126;20.638;2023-04-01T03:13:56;57289.97;;;-144.78;58.46
55994;BME280;67425;52.126;20.638;2023-04-01T03:16:22;57319.06;;;-144.78;60.56
55994;BME280;67425;52.126;20.638;2023-04-01T03:18:47;57294.13;;;-144.78;60.78
55994;BME280;67425;52.126;20.638;2023-04-01T03:21:17;57325.28;;;-144.78;59.87
55994;BME280;67425;52.126;20.638;2023-04-01T03:23:43;57302.44;;;-144.78;60.24
55994;BME280;67425;52.126;20.638;2023-04-01T03:26:08;57285.81;;;-144.78;59.19
55994;BME280;67425;52.126;20.638;2023-04-01T03:28:34;57287.91;;;-144.78;58.72
55994;BME280;67425;52.126;20.638;2023-04-01T03:30:59;57285.81;;;-144.78;59.09
55994;BME280;67425;52.126;20.638;2023-04-01T03:33:25;57302.44;;;-144.78;59.51
55994;BME280;67425;52.126;20.638;2023-04-01T03:35:50;57304.50;;;-144.78;59.77
55994;BME280;67425;52.126;20.638;2023-04-01T03:38:17;57310.75;;;-144.78;59.84
55994;BME280;67425;52.126;20.638;2023-04-01T03:40:43;57308.66;;;-144.78;58.34
55994;BME280;67425;52.126;20.638;2023-04-01T03:43:09;57310.75;;;-144.78;59.98
55994;BME280;67425;52.126;20.638;2023-04-01T03:45:35;57308.66;;;-144.78;59.54
55994;BME280;67425;52.126;20.638;2023-04-01T03:48:01;57314.91;;;-144.78;59.76
55994;BME280;67425;52.126;20.638;2023-04-01T03:50:26;57310.75;;;-144.78;58.08
55994;BME280;67425;52.126;20.638;2023-04-01T03:52:51;57312.81;;;-144.78;59.31
55994;BME280;67425;52.126;20.638;2023-04-01T03:55:17;57308.66;;;-144.78;59.27
55994;BME280;67425;52.126;20.638;2023-04-01T03:57:43;57327.34;;;-144.78;59.46
55994;BME280;67425;52.126;20.638;2023-04-01T04:00:09;57310.75;;;-144.78;59.03
55994;BME280;67425;52.126;20.638;2023-04-01T04:02:34;57296.22;;;-144.78;58.82
55994;BME280;67425;52.126;20.638;2023-04-01T04:05:00;57306.59;;;-144.78;58.04
55994;BME280;67425;52.126;20.638;2023-04-01T04:07:26;57294.13;;;-144.78;58.03
55994;BME280;67425;52.126;20.638;2023-04-01T04:09:51;57296.22;;;-144.78;57.14
55994;BME280;67425;52.126;20.638;2023-04-01T04:12:16;57292.06;;;-144.78;56.59
55994;BME280;67425;52.126;20.638;2023-04-01T04:14:42;57298.28;;;-144.78;57.05
55994;BME280;67425;52.126;20.638;2023-04-01T04:17:10;57294.13;;;-144.78;57.10
55994;BME280;67425;52.126;20.638;2023-04-01T04:19:38;57294.13;;;-144.78;56.88
55994;BME280;67425;52.126;20.638;2023-04-01T04:22:04;57302.44;;;-144.78;57.46
55994;BME280;67425;52.126;20.638;2023-04-01T04:24:29;57283.75;;;-144.78;56.60
55994;BME280;67425;52.126;20.638;2023-04-01T04:26:54;57285.81;;;-144.78;56.55
55994;BME280;67425;52.126;20.638;2023-04-01T04:29:20;57306.59;;;-144.78;56.21
55994;BME280;67425;52.126;20.638;2023-04-01T04:31:45;57283.75;;;-144.78;55.50
55994;BME280;67425;52.126;20.638;2023-04-01T04:34:11;57289.97;;;-144.78;56.19
55994;BME280;67425;52.126;20.638;2023-04-01T04:36:36;57289.97;;;-144.78;55.54
55994;BME280;67425;52.126;20.638;2023-04-01T04:39:01;57302.44;;;-144.78;56.22
55994;BME280;67425;52.126;20.638;2023-04-01T04:41:28;57265.06;;;-144.78;55.44
55994;BME280;67425;52.126;20.638;2023-04-01T04:43:55;57285.81;;;-144.78;55.62
55994;BME280;67425;52.126;20.638;2023-04-01T04:46:22;57287.91;;;-144.78;55.33
55994;BME280;67425;52.126;20.638;2023-04-01T04:48:47;57283.75;;;-144.78;55.29
55994;BME280;67425;52.126;20.638;2023-04-01T04:51:15;57292.06;;;-144.78;54.93
55994;BME280;67425;52.126;20.638;2023-04-01T04:53:41;57279.59;;;-144.78;55.81
55994;BME280;67425;52.126;20.638;2023-04-01T04:56:06;57300.38;;;-144.78;55.65
55994;BME280;67425;52.126;20.638;2023-04-01T04:58:32;57271.28;;;-144.78;55.56
55994;BME280;67425;52.126;20.638;2023-04-01T05:00:57;57287.91;;;-144.78;56.89
55994;BME280;67425;52.126;20.638;2023-04-01T05:03:23;57310.75;;;-144.78;57.71
55994;BME280;67425;52.126;20.638;2023-04-01T05:05:53;57279.59;;;-144.78;57.02
55994;BME280;67425;52.126;20.638;2023-04-01T05:08:18;57302.44;;;-144.78;57.71
55994;BME280;67425;52.126;20.638;2023-04-01T05:10:44;57287.91;;;-144.78;57.22
55994;BME280;67425;52.126;20.638;2023-04-01T05:13:10;57298.28;;;-144.78;57.00
55994;BME280;67425;52.126;20.638;2023-04-01T05:15:36;57283.75;;;-144.78;56.45
55994;BME280;67425;52.126;20.638;2023-04-01T05:18:02;57292.06;;;-144.78;56.96
55994;BME280;67425;52.126;20.638;2023-04-01T05:20:28;57300.38;;;-144.78;57.59
55994;BME280;67425;52.126;20.638;2023-04-01T05:22:57;57294.13;;;-144.78;57.21
55994;BME280;67425;52.126;20.638;2023-04-01T05:25:23;57296.22;;;-144.78;57.04
55994;BME280;67425;52.126;20.638;2023-04-01T05:27:48;57302.44;;;-144.78;57.48
55994;BME280;67425;52.126;20.638;2023-04-01T05:30:13;57285.81;;;-144.78;57.90
55994;BME280;67425;52.126;20.638;2023-04-01T05:32:39;57277.53;;;-144.78;56.75
55994;BME280;67425;52.126;20.638;2023-04-01T05:35:05;57289.97;;;-144.78;57.46
55994;BME280;67425;52.126;20.638;2023-04-01T05:37:30;57310.75;;;-144.78;58.14
55994;BME280;67425;52.126;20.638;2023-04-01T05:39:58;57310.75;;;-144.78;58.56
55994;BME280;67425;52.126;20.638;2023-04-01T05:42:23;57300.38;;;-144.78;58.19
55994;BME280;67425;52.126;20.638;2023-04-01T05:44:49;57298.28;;;-144.78;57.71
55994;BME280;67425;52.126;20.638;2023-04-01T05:47:14;57294.13;;;-144.78;57.81
55994;BME280;67425;52.126;20.638;2023-04-01T05:49:39;57271.28;;;-144.78;57.77
55994;BME280;67425;52.126;20.638;2023-04-01T05:52:05;57310.75;;;-144.78;59.22
55994;BME280;67425;52.126;20.638;2023-04-01T05:54:30;57302.44;;;-144.78;58.70
55994;BME280;67425;52.126;20.638;2023-04-01T05:56:55;57302.44;;;-144.78;58.12
55994;BME280;67425;52.126;20.638;2023-04-01T05:59:21;57300.38;;;-144.78;58.44
55994;BME280;67425;52.126;20.638;2023-04-01T06:01:46;57298.28;;;-144.78;58.39
55994;BME280;67425;52.126;20.638;2023-04-01T06:04:16;57302.44;;;-144.78;58.79
55994;BME280;67425;52.126;20.638;2023-04-01T06:06:41;57306.59;;;-144.78;59.67
55994;BME280;67425;52.126;20.638;2023-04-01T06:09:13;57316.97;;;-144.78;58.76
55994;BME280;67425;52.126;20.638;2023-04-01T06:20:26;57312.81;;;-144.78;60.19
55994;BME280;67425;52.126;20.638;2023-04-01T06:26:06;57304.50;;;-144.78;59.75
55994;BME280;67425;52.126;20.638;2023-04-01T06:28:48;57302.44;;;-144.78;58.93
55994;BME280;67425;52.126;20.638;2023-04-01T06:31:21;57308.66;;;-144.78;59.25
55994;BME280;67425;52.126;20.638;2023-04-01T06:42:57;57316.97;;;-144.78;59.57
55994;BME280;67425;52.126;20.638;2023-04-01T06:48:22;57292.06;;;-144.78;57.42
55994;BME280;67425;52.126;20.638;2023-04-01T06:51:06;57302.44;;;-144.78;58.22
55994;BME280;67425;52.126;20.638;2023-04-01T06:53:55;57287.91;;;-144.78;57.81
55994;BME280;67425;52.126;20.638;2023-04-01T06:56:25;57308.66;;;-144.78;58.94
55994;BME280;67425;52.126;20.638;2023-04-01T06:58:57;57310.75;;;-144.78;57.64
55994;BME280;67425;52.126;20.638;2023-04-01T07:01:29;57287.91;;;-144.78;57.44
55994;BME280;67425;52.126;20.638;2023-04-01T07:04:37;57287.91;;;-144.78;57.09
55994;BME280;67425;52.126;20.638;2023-04-01T07:07:12;57267.13;;;-144.78;55.66
55994;BME280;67425;52.126;20.638;2023-04-01T07:09:41;57277.53;;;-144.78;55.83
55994;BME280;67425;52.126;20.638;2023-04-01T07:12:40;57269.22;;;-144.78;55.31
55994;BME280;67425;52.126;20.638;2023-04-01T07:15:23;57287.91;;;-144.78;55.13
55994;BME280;67425;52.126;20.638;2023-04-01T07:17:56;57294.13;;;-144.78;55.38
55994;BME280;67425;52.126;20.638;2023-04-01T07:20:30;57277.53;;;-144.78;54.15
55994;BME280;67425;52.126;20.638;2023-04-01T07:23:05;57267.13;;;-144.78;54.37
55994;BME280;67425;52.126;20.638;2023-04-01T07:25:42;57271.28;;;-144.78;54.43
55994;BME280;67425;52.126;20.638;2023-04-01T07:28:14;57262.97;;;-144.78;55.02
55994;BME280;67425;52.126;20.638;2023-04-01T07:34:17;57277.53;;;-144.78;55.66
55994;BME280;67425;52.126;20.638;2023-04-01T07:36:55;57267.13;;;-144.78;54.73
55994;BME280;67425;52.126;20.638;2023-04-01T07:39:34;57271.28;;;-144.78;54.84
55994;BME280;67425;52.126;20.638;2023-04-01T07:42:13;57289.97;;;-144.78;56.56
55994;BME280;67425;52.126;20.638;2023-04-01T07:50:20;57281.69;;;-144.78;57.96
55994;BME280;67425;52.126;20.638;2023-04-01T07:53:10;57298.28;;;-144.78;58.30
55994;BME280;67425;52.126;20.638;2023-04-01T08:04:17;57285.81;;;-144.78;59.58
55994;BME280;67425;52.126;20.638;2023-04-01T08:25:40;57285.81;;;-144.78;56.65
55994;BME280;67425;52.126;20.638;2023-04-01T08:30:44;57279.59;;;-144.78;56.45
55994;BME280;67425;52.126;20.638;2023-04-01T08:33:19;57298.28;;;-144.78;57.16
55994;BME280;67425;52.126;20.638;2023-04-01T08:35:51;57281.69;;;-144.78;56.75
55994;BME280;67425;52.126;20.638;2023-04-01T08:38:30;57302.44;;;-144.78;58.63
55994;BME280;67425;52.126;20.638;2023-04-01T08:52:51;57289.97;;;-144.78;58.17
55994;BME280;67425;52.126;20.638;2023-04-01T08:55:51;57277.53;;;-144.78;57.71
55994;BME280;67425;52.126;20.638;2023-04-01T09:06:39;57285.81;;;-144.78;56.95
55994;BME280;67425;52.126;20.638;2023-04-01T09:09:23;57281.69;;;-144.78;57.42
55994;BME280;67425;52.126;20.638;2023-04-01T09:12:22;57298.28;;;-144.78;58.94
55994;BME280;67425;52.126;20.638;2023-04-01T09:23:31;57308.66;;;-144.78;59.56
55994;BME280;67425;52.126;20.638;2023-04-01T09:26:37;57285.81;;;-144.78;57.74
55994;BME280;67425;52.126;20.638;2023-04-01T09:35:06;57289.97;;;-144.78;57.62
55994;BME280;67425;52.126;20.638;2023-04-01T09:54:17;57277.53;;;-144.78;56.56
55994;BME280;67425;52.126;20.638;2023-04-01T09:57:17;57275.44;;;-144.78;56.45
55994;BME280;67425;52.126;20.638;2023-04-01T10:00:04;57285.81;;;-144.78;56.63
55994;BME280;67425;52.126;20.638;2023-04-01T10:08:18;57256.75;;;-144.78;55.55
55994;BME280;67425;52.126;20.638;2023-04-01T10:19:39;57217.31;;;-144.78;54.30
55994;BME280;67425;52.126;20.638;2023-04-01T10:27:49;57213.16;;;-144.78;54.79
55994;BME280;67425;52.126;20.638;2023-04-01T11:12:02;57248.44;;;-144.78;51.30
55994;BME280;67425;52.126;20.638;2023-04-01T11:33:36;57225.59;;;-144.78;50.56
55994;BME280;67425;52.126;20.638;2023-04-01T11:45:22;57206.91;;;-144.78;50.01
55994;BME280;67425;52.126;20.638;2023-04-01T11:53:49;57209.00;;;-144.78;48.44
55994;BME280;67425;52.126;20.638;2023-04-01T12:02:02;57182.00;;;-144.78;47.99
55994;BME280;67425;52.126;20.638;2023-04-01T12:04:43;57209.00;;;-144.78;49.10
55994;BME280;67425;52.126;20.638;2023-04-01T12:07:53;57219.38;;;-144.78;50.61
55994;BME280;67425;52.126;20.638;2023-04-01T12:10:21;57229.75;;;-144.78;51.20
55994;BME280;67425;52.126;20.638;2023-04-01T12:18:13;57209.00;;;-144.78;50.40
55994;BME280;67425;52.126;20.638;2023-04-01T12:29:47;57213.16;;;-144.78;50.79
55994;BME280;67425;52.126;20.638;2023-04-01T12:40:22;57190.31;;;-144.78;50.78
55994;BME280;67425;52.126;20.638;2023-04-01T12:55:51;57202.75;;;-144.78;48.23
55994;BME280;67425;52.126;20.638;2023-04-01T13:09:43;57265.06;;;-144.78;51.38
55994;BME280;67425;52.126;20.638;2023-04-01T13:12:44;57229.75;;;-144.78;49.94
55994;BME280;67425;52.126;20.638;2023-04-01T13:15:25;57215.22;;;-144.78;48.73
55994;BME280;67425;52.126;20.638;2023-04-01T13:21:19;57240.13;;;-144.78;52.04
55994;BME280;67425;52.126;20.638;2023-04-01T13:23:57;57269.22;;;-144.78;52.61
55994;BME280;67425;52.126;20.638;2023-04-01T13:29:16;57265.06;;;-144.78;52.73
55994;BME280;67425;52.126;20.638;2023-04-01T13:32:00;57246.38;;;-144.78;50.98
55994;BME280;67425;52.126;20.638;2023-04-01T13:37:18;57227.69;;;-144.78;50.22
55994;BME280;67425;52.126;20.638;2023-04-01T13:42:24;57260.91;;;-144.78;51.87
55994;BME280;67425;52.126;20.638;2023-04-01T13:47:36;57289.97;;;-144.78;54.77
55994;BME280;67425;52.126;20.638;2023-04-01T13:55:53;57256.75;;;-144.78;53.17
55994;BME280;67425;52.126;20.638;2023-04-01T14:03:47;57281.69;;;-144.78;56.06
55994;BME280;67425;52.126;20.638;2023-04-01T14:06:29;57296.22;;;-144.78;56.77
55994;BME280;67425;52.126;20.638;2023-04-01T14:17:39;57337.75;;;-144.78;60.46
55994;BME280;67425;52.126;20.638;2023-04-01T14:28:15;57333.59;;;-144.78;63.28
55994;BME280;67425;52.126;20.638;2023-04-01T14:33:39;57333.59;;;-144.78;64.81
55994;BME280;67425;52.126;20.638;2023-04-01T14:50:21;57314.91;;;-144.78;60.13
55994;BME280;67425;52.126;20.638;2023-04-01T14:58:22;57298.28;;;-144.78;59.15
55994;BME280;67425;52.126;20.638;2023-04-01T15:00:58;57339.81;;;-144.78;58.89
55994;BME280;67425;52.126;20.638;2023-04-01T15:03:32;57298.28;;;-144.78;58.32
55994;BME280;67425;52.126;20.638;2023-04-01T15:09:01;57314.91;;;-144.78;58.38
55994;BME280;67425;52.126;20.638;2023-04-01T15:17:05;57356.44;;;-144.78;61.98
55994;BME280;67425;52.126;20.638;2023-04-01T15:19:54;57346.06;;;-144.78;61.15
55994;BME280;67425;52.126;20.638;2023-04-01T15:22:57;57348.13;;;-144.78;59.92
55994;BME280;67425;52.126;20.638;2023-04-01T15:28:20;57314.91;;;-144.78;59.55
55994;BME280;67425;52.126;20.638;2023-04-01T15:36:07;57329.44;;;-144.78;59.29
55994;BME280;67425;52.126;20.638;2023-04-01T15:45:24;57316.97;;;-144.78;57.51
55994;BME280;67425;52.126;20.638;2023-04-01T15:59:01;57335.66;;;-144.78;57.88
55994;BME280;67425;52.126;20.638;2023-04-01T16:04:57;57296.22;;;-144.78;56.65
55994;BME280;67425;52.126;20.638;2023-04-01T16:07:37;57296.22;;;-144.78;56.16
55994;BME280;67425;52.126;20.638;2023-04-01T16:18:34;57312.81;;;-144.78;55.72
55994;BME280;67425;52.126;20.638;2023-04-01T16:21:24;57323.22;;;-144.78;56.31
55994;BME280;67425;52.126;20.638;2023-04-01T16:24:03;57306.59;;;-144.78;54.88
55994;BME280;67425;52.126;20.638;2023-04-01T16:26:44;57312.81;;;-144.78;54.73
55994;BME280;67425;52.126;20.638;2023-04-01T16:29:22;57283.75;;;-144.78;53.13
55994;BME280;67425;52.126;20.638;2023-04-01T16:37:45;57277.53;;;-144.78;54.50
55994;BME280;67425;52.126;20.638;2023-04-01T16:40:20;57285.81;;;-144.78;53.51
55994;BME280;67425;52.126;20.638;2023-04-01T16:43:12;57308.66;;;-144.78;53.59
55994;BME280;67425;52.126;20.638;2023-04-01T16:54:50;57300.38;;;-144.78;54.67
55994;BME280;67425;52.126;20.638;2023-04-01T16:57:25;57294.13;;;-144.78;53.30
55994;BME280;67425;52.126;20.638;2023-04-01T17:02:35;57306.59;;;-144.78;54.44
55994;BME280;67425;52.126;20.638;2023-04-01T17:05:10;57335.66;;;-144.78;55.38
55994;BME280;67425;52.126;20.638;2023-04-01T17:18:23;57319.06;;;-144.78;54.75
55994;BME280;67425;52.126;20.638;2023-04-01T17:20:56;57308.66;;;-144.78;54.04
55994;BME280;67425;52.126;20.638;2023-04-01T17:29:03;57343.97;;;-144.78;55.94
55994;BME280;67425;52.126;20.638;2023-04-01T17:45:53;57302.44;;;-144.78;53.66
55994;BME280;67425;52.126;20.638;2023-04-01T17:48:37;57335.66;;;-144.78;54.64
55994;BME280;67425;52.126;20.638;2023-04-01T17:59:57;57348.13;;;-144.78;55.96
55994;BME280;67425;52.126;20.638;2023-04-01T18:11:20;57377.19;;;-144.78;57.64
55994;BME280;67425;52.126;20.638;2023-04-01T18:19:41;57387.59;;;-144.78;58.30
55994;BME280;67425;52.126;20.638;2023-04-01T18:27:41;57377.19;;;-144.78;57.33
55994;BME280;67425;52.126;20.638;2023-04-01T18:30:27;57358.50;;;-144.78;57.05
55994;BME280;67425;52.126;20.638;2023-04-01T18:33:09;57346.06;;;-144.78;54.85
55994;BME280;67425;52.126;20.638;2023-04-01T18:40:47;57323.22;;;-144.78;54.67
55994;BME280;67425;52.126;20.638;2023-04-01T18:43:38;57329.44;;;-144.78;56.08
55994;BME280;67425;52.126;20.638;2023-04-01T18:46:17;57354.34;;;-144.78;56.56
55994;BME280;67425;52.126;20.638;2023-04-01T18:51:46;57319.06;;;-144.78;53.16
55994;BME280;67425;52.126;20.638;2023-04-01T18:57:18;57346.06;;;-144.78;55.94
55994;BME280;67425;52.126;20.638;2023-04-01T18:59:46;57343.97;;;-144.78;55.88
55994;BME280;67425;52.126;20.638;2023-04-01T19:02:34;57343.97;;;-144.78;56.25
55994;BME280;67425;52.126;20.638;2023-04-01T19:05:09;57383.44;;;-144.78;56.76
55994;BME280;67425;52.126;20.638;2023-04-01T19:12:49;57335.66;;;-144.78;54.49
55994;BME280;67425;52.126;20.638;2023-04-01T19:17:57;57360.59;;;-144.78;55.78
55994;BME280;67425;52.126;20.638;2023-04-01T19:26:09;57348.13;;;-144.78;55.04
55994;BME280;67425;52.126;20.638;2023-04-01T19:34:25;57410.44;;;-144.78;61.50
55994;BME280;67425;52.126;20.638;2023-04-01T19:36:56;57381.34;;;-144.78;58.59
55994;BME280;67425;52.126;20.638;2023-04-01T19:42:30;57381.34;;;-144.78;57.85
55994;BME280;67425;52.126;20.638;2023-04-01T19:47:48;57397.97;;;-144.78;60.08
55994;BME280;67425;52.126;20.638;2023-04-01T19:51:09;57362.66;;;-144.78;57.79
55994;BME280;67425;52.126;20.638;2023-04-01T19:56:20;57385.50;;;-144.78;60.02
55994;BME280;67425;52.126;20.638;2023-04-01T20:01:34;57373.06;;;-144.78;58.17
55994;BME280;67425;52.126;20.638;2023-04-01T20:04:22;57375.13;;;-144.78;57.49
55994;BME280;67425;52.126;20.638;2023-04-01T20:07:02;57368.91;;;-144.78;56.45
55994;BME280;67425;52.126;20.638;2023-04-01T20:15:58;57381.34;;;-144.78;56.05
55994;BME280;67425;52.126;20.638;2023-04-01T20:21:17;57381.34;;;-144.78;56.50
55994;BME280;67425;52.126;20.638;2023-04-01T20:23:53;57387.59;;;-144.78;58.08
55994;BME280;67425;52.126;20.638;2023-04-01T20:26:27;57360.59;;;-144.78;55.71
55994;BME280;67425;52.126;20.638;2023-04-01T20:34:35;57381.34;;;-144.78;57.84
55994;BME280;67425;52.126;20.638;2023-04-01T20:39:56;57385.50;;;-144.78;56.93
55994;BME280;67425;52.126;20.638;2023-04-01T20:42:34;57406.28;;;-144.78;58.50
55994;BME280;67425;52.126;20.638;2023-04-01T20:48:21;57368.91;;;-144.78;56.87
55994;BME280;67425;52.126;20.638;2023-04-01T20:50:59;57400.03;;;-144.78;57.85
55994;BME280;67425;52.126;20.638;2023-04-01T20:53:36;57379.28;;;-144.78;58.06
55994;BME280;67425;52.126;20.638;2023-04-01T20:58:54;57397.97;;;-144.78;60.13
55994;BME280;67425;52.126;20.638;2023-04-01T21:04:44;57366.81;;;-144.78;57.20
55994;BME280;67425;52.126;20.638;2023-04-01T21:07:24;57370.97;;;-144.78;56.37
55994;BME280;67425;52.126;20.638;2023-04-01T21:13:06;57350.19;;;-144.78;54.14
55994;BME280;67425;52.126;20.638;2023-04-01T21:24:23;57354.34;;;-144.78;53.92
55994;BME280;67425;52.126;20.638;2023-04-01T21:26:52;57391.75;;;-144.78;55.43
55994;BME280;67425;52.126;20.638;2023-04-01T21:29:37;57389.66;;;-144.78;57.05
55994;BME280;67425;52.126;20.638;2023-04-01T21:38:00;57362.66;;;-144.78;55.91
55994;BME280;67425;52.126;20.638;2023-04-01T21:40:38;57391.75;;;-144.78;55.64
55994;BME280;67425;52.126;20.638;2023-04-01T21:48:37;57408.34;;;-144.78;55.40
55994;BME280;67425;52.126;20.638;2023-04-01T21:51:33;57393.81;;;-144.78;54.89
55994;BME280;67425;52.126;20.638;2023-04-01T22:10:40;57435.34;;;-144.78;55.50
55994;BME280;67425;52.126;20.638;2023-04-01T22:13:15;57383.44;;;-144.78;54.34
55994;BME280;67425;52.126;20.638;2023-04-01T22:16:12;57387.59;;;-144.78;54.24
55994;BME280;67425;52.126;20.638;2023-04-01T22:19:14;57414.59;;;-144.78;55.30
55994;BME280;67425;52.126;20.638;2023-04-01T22:22:08;57395.88;;;-144.78;54.60
55994;BME280;67425;52.126;20.638;2023-04-01T22:27:52;57389.66;;;-144.78;54.02
55994;BME280;67425;52.126;20.638;2023-04-01T22:30:27;57377.19;;;-144.78;53.84